createdAt,value
2023-01-17T10:19:57.602Z,96.70
2023-01-17T10:22:32.752Z,96.70
2023-01-17T10:25:37.346Z,96.00
2023-01-17T10:28:23.817Z,96.50
2023-01-17T10:30:51.900Z,96.80
2023-01-17T10:33:27.090Z,97.40
2023-01-17T10:36:03.818Z,97.00
2023-01-17T10:38:38.653Z,96.20
2023-01-17T10:41:17.738Z,96.00
2023-01-17T10:44:17.546Z,95.80
2023-01-17T10:46:56.103Z,95.50
2023-01-17T10:49:26.261Z,95.80
2023-01-17T10:52:10.776Z,95.30
2023-01-17T10:55:08.811Z,94.90
2023-01-17T10:57:42.047Z,95.10
2023-01-17T11:00:30.806Z,95.10
2023-01-17T11:02:58.439Z,94.70
2023-01-17T11:05:31.348Z,95.80
2023-01-17T11:08:05.478Z,95.20
2023-01-17T11:10:54.286Z,95.50
2023-01-17T11:13:36.684Z,95.90
2023-01-17T11:16:09.976Z,95.40
2023-01-17T11:18:39.128Z,94.60
2023-01-17T11:21:23.294Z,94.60
2023-01-17T11:23:58.361Z,94.80
2023-01-17T11:26:34.404Z,95.00
2023-01-17T11:29:36.011Z,95.60
2023-01-17T11:32:22.574Z,95.00
2023-01-17T11:35:10.963Z,95.10
2023-01-17T11:37:38.656Z,94.40
2023-01-17T11:40:18.224Z,94.80
2023-01-17T11:42:45.028Z,95.90
2023-01-17T11:45:33.131Z,94.70
2023-01-17T11:48:08.789Z,94.70
2023-01-17T11:50:38.803Z,94.90
2023-01-17T11:53:28.041Z,95.30
2023-01-17T11:56:11.350Z,95.30
2023-01-17T11:58:42.289Z,94.70
2023-01-17T12:01:16.764Z,95.10
2023-01-17T12:04:08.302Z,94.70
2023-01-17T12:07:16.636Z,94.70
2023-01-17T12:09:58.360Z,95.50
2023-01-17T12:12:52.964Z,95.50
2023-01-17T12:15:44.923Z,95.40
2023-01-17T12:18:26.348Z,94.90
2023-01-17T12:21:16.545Z,95.70
2023-01-17T12:24:12.447Z,94.10
2023-01-17T12:26:59.481Z,94.40
2023-01-17T12:29:47.787Z,94.30
2023-01-17T12:32:36.804Z,93.60
2023-01-17T12:35:17.802Z,94.00
2023-01-17T12:38:04.184Z,94.40
2023-01-17T12:40:46.701Z,93.90
2023-01-17T12:43:37.122Z,93.70
2023-01-17T12:46:21.042Z,93.90
2023-01-17T12:49:09.956Z,94.10
2023-01-17T12:51:43.107Z,92.90
2023-01-17T12:54:18.601Z,93.00
2023-01-17T12:56:58.944Z,93.40
2023-01-17T12:59:41.546Z,93.00
2023-01-17T13:02:44.697Z,93.20
2023-01-17T13:05:40.593Z,93.40
2023-01-17T13:08:13.358Z,92.80
2023-01-17T13:10:48.553Z,92.30
2023-01-17T13:13:29.996Z,92.90
2023-01-17T13:16:07.824Z,91.30
2023-01-17T13:18:38.533Z,91.50
2023-01-17T13:21:31.270Z,91.90
2023-01-17T13:24:07.240Z,91.00
2023-01-17T13:26:55.651Z,90.90
2023-01-17T13:29:57.266Z,91.90
2023-01-17T13:32:45.225Z,91.50
2023-01-17T13:35:41.920Z,91.10
2023-01-17T13:38:37.749Z,91.60
2023-01-17T13:41:10.534Z,91.40
2023-01-17T13:43:40.540Z,91.70
2023-01-17T13:46:07.804Z,91.60
2023-01-17T13:48:40.763Z,91.80
2023-01-17T13:51:09.223Z,92.00
2023-01-17T13:53:36.873Z,91.00
2023-01-17T13:56:15.341Z,92.30
2023-01-17T13:58:54.341Z,91.60
2023-01-17T14:01:24.074Z,91.70
2023-01-17T14:03:53.976Z,91.50
2023-01-17T14:06:36.004Z,90.60
2023-01-17T14:09:11.927Z,91.00
2023-01-17T14:11:57.588Z,91.70
2023-01-17T14:14:45.257Z,90.90
2023-01-17T14:17:25.604Z,90.60
2023-01-17T14:20:21.650Z,90.50
2023-01-17T14:22:53.587Z,90.50
2023-01-17T14:25:25.403Z,90.40
2023-01-17T14:27:59.810Z,91.50
2023-01-17T14:30:32.512Z,90.50
2023-01-17T14:32:59.330Z,90.40
2023-01-17T14:35:29.937Z,89.10
2023-01-17T14:37:57.751Z,88.60
2023-01-17T14:40:27.497Z,89.30
2023-01-17T14:43:01.659Z,88.60
2023-01-17T14:45:31.349Z,88.40
2023-01-17T14:48:00.160Z,89.10
2023-01-17T14:50:30.480Z,89.10
2023-01-17T14:53:11.519Z,89.80
2023-01-17T14:55:48.940Z,89.80
2023-01-17T14:58:36.956Z,89.60
2023-01-17T15:01:15.573Z,89.80
2023-01-17T15:03:53.023Z,90.20
2023-01-17T15:06:40.637Z,90.50
2023-01-17T15:09:26.023Z,88.90
2023-01-17T15:11:54.060Z,90.60
2023-01-17T15:14:28.816Z,90.10
2023-01-17T15:16:56.152Z,90.60
2023-01-17T15:19:23.270Z,90.80
2023-01-17T15:21:53.282Z,90.20
2023-01-17T15:24:24.442Z,90.50
2023-01-17T15:26:51.883Z,90.90
2023-01-17T15:29:29.549Z,91.00
2023-01-17T15:32:01.662Z,91.50
2023-01-17T15:34:30.030Z,91.70
2023-01-17T15:37:20.925Z,91.40
2023-01-17T15:39:48.178Z,92.10
2023-01-17T15:42:24.784Z,92.40
2023-01-17T15:44:58.008Z,92.70
2023-01-17T15:47:38.048Z,92.00
2023-01-17T15:50:20.252Z,92.30
2023-01-17T15:52:55.996Z,92.60
2023-01-17T15:55:29.947Z,92.60
2023-01-17T15:57:57.542Z,93.10
2023-01-17T16:00:38.309Z,93.40
2023-01-17T16:03:36.111Z,94.00
2023-01-17T16:06:04.459Z,93.90
2023-01-17T16:08:40.798Z,93.70
2023-01-17T16:11:10.617Z,93.70
2023-01-17T16:13:39.195Z,93.60
2023-01-17T16:16:11.403Z,94.10
2023-01-17T16:18:38.593Z,93.70
2023-01-17T16:21:16.979Z,96.80
2023-01-17T16:23:43.848Z,98.10
2023-01-17T16:26:10.962Z,97.60
2023-01-17T16:28:38.530Z,98.50
2023-01-17T16:31:07.561Z,96.50
2023-01-17T16:33:34.524Z,94.60
2023-01-17T16:36:01.361Z,91.90
2023-01-17T16:38:28.209Z,92.80
2023-01-17T16:40:55.149Z,93.20
2023-01-17T16:43:21.989Z,93.30
2023-01-17T16:45:52.667Z,93.30
2023-01-17T16:48:20.421Z,93.30
2023-01-17T16:50:53.007Z,93.70
2023-01-17T16:53:24.270Z,94.20
2023-01-17T16:55:53.686Z,94.50
2023-01-17T16:58:20.519Z,94.80
2023-01-17T17:00:50.516Z,94.50
2023-01-17T17:03:19.193Z,94.90
2023-01-17T17:05:53.777Z,94.20
2023-01-17T17:08:24.243Z,94.20
2023-01-17T17:19:05.252Z,94.60
2023-01-17T17:21:33.948Z,94.30
2023-01-17T17:24:01.925Z,94.50
2023-01-17T17:26:34.392Z,94.70
2023-01-17T17:29:02.209Z,94.20
2023-01-17T17:31:31.830Z,94.60
2023-01-17T17:34:03.001Z,95.10
2023-01-17T17:36:30.509Z,95.20
2023-01-17T17:38:58.121Z,95.10
2023-01-17T17:41:30.732Z,94.80
2023-01-17T17:43:57.512Z,95.40
2023-01-17T17:46:25.451Z,94.60
2023-01-17T17:48:52.821Z,95.10
2023-01-17T17:51:27.159Z,95.20
2023-01-17T17:54:00.996Z,94.70
2023-01-17T17:56:32.194Z,94.90
2023-01-17T17:59:00.355Z,94.70
2023-01-17T18:01:27.580Z,95.00
2023-01-17T18:03:56.946Z,94.70
2023-01-17T18:06:24.164Z,94.60
2023-01-17T18:08:52.108Z,94.20
2023-01-17T18:11:24.372Z,94.50
2023-01-17T18:13:52.502Z,94.60
2023-01-17T18:16:41.727Z,94.50
2023-01-17T18:19:23.741Z,94.30
2023-01-17T18:21:51.605Z,94.00
2023-01-17T18:24:21.288Z,94.10
2023-01-17T18:26:57.097Z,93.60
2023-01-17T18:29:25.577Z,94.10
2023-01-17T18:31:53.511Z,94.10
2023-01-17T18:34:24.093Z,94.40
2023-01-17T18:36:51.526Z,94.40
2023-01-17T18:39:27.396Z,94.00
2023-01-17T18:41:54.729Z,94.20
2023-01-17T18:44:22.636Z,94.30
2023-01-17T18:46:50.777Z,94.40
2023-01-17T18:49:19.310Z,94.60
2023-01-17T18:51:50.384Z,95.00
2023-01-17T18:54:18.258Z,94.70
2023-01-17T18:56:45.194Z,94.80
2023-01-17T18:59:13.718Z,94.90
2023-01-17T19:01:44.535Z,94.90
2023-01-17T19:04:13.844Z,94.80
2023-01-17T19:06:42.885Z,94.40
2023-01-17T19:09:11.756Z,94.60
2023-01-17T19:11:38.710Z,94.40
2023-01-17T19:14:06.722Z,94.60
2023-01-17T19:16:39.367Z,94.30
2023-01-17T19:19:09.381Z,94.50
2023-01-17T19:21:36.636Z,94.30
2023-01-17T19:24:03.866Z,94.10
2023-01-17T19:26:31.098Z,94.10
2023-01-17T19:29:02.292Z,94.40
2023-01-17T19:31:30.438Z,94.20
2023-01-17T19:33:59.151Z,94.00
2023-01-17T19:36:34.405Z,93.70
2023-01-17T19:39:05.715Z,93.70
2023-01-17T19:41:34.873Z,93.90
2023-01-17T19:44:07.156Z,94.10
2023-01-17T19:46:35.165Z,93.90
2023-01-17T19:49:02.636Z,93.80
2023-01-17T19:51:29.886Z,93.40
2023-01-17T19:53:59.787Z,93.50
2023-01-17T19:56:27.823Z,93.50
2023-01-17T19:58:54.743Z,93.40
2023-01-17T20:01:28.697Z,93.20
2023-01-17T20:03:58.029Z,93.10
2023-01-17T20:06:28.841Z,92.90
2023-01-17T20:08:56.418Z,93.00
2023-01-17T20:11:24.954Z,93.80
2023-01-17T20:13:54.796Z,93.40
2023-01-17T20:16:27.155Z,93.00
2023-01-17T20:18:54.273Z,93.30
2023-01-17T20:21:27.488Z,93.40
2023-01-17T20:23:56.157Z,93.20
2023-01-17T20:26:34.363Z,93.00
2023-01-17T20:29:11.013Z,93.30
2023-01-17T20:31:42.530Z,93.20
2023-01-17T20:34:12.004Z,93.00
2023-01-17T20:36:41.757Z,92.90
2023-01-17T20:39:11.783Z,92.90
2023-01-17T20:41:40.823Z,92.90
2023-01-17T20:44:13.214Z,93.10
2023-01-17T20:46:41.310Z,92.80
2023-01-17T20:49:14.577Z,92.80
2023-01-17T20:51:44.073Z,92.90
2023-01-17T20:54:14.337Z,92.70
2023-01-17T20:56:41.618Z,93.10
2023-01-17T20:59:13.082Z,93.30
2023-01-17T21:01:40.012Z,93.10
2023-01-17T21:04:10.817Z,92.90
2023-01-17T21:06:39.716Z,92.80
2023-01-17T21:09:08.698Z,92.90
2023-01-17T21:11:36.978Z,93.00
